Terminal Aerodrome Forecast
Issued by NWS

Home | Current Version | Previous Version | Text Only | Print | Product List | Glossary On
Versions: 1 2 3 4 5 6 7 8 9 10 11 12 13 14 15 16 17 18 19
909
FTUS43 KAPX 260535
TAFMBL
TAF
KMBL 260535Z 2606/2706 17008KT P6SM VCSH BKN100 WS020/22030KT
     FM261100 19009KT P6SM -SHRA BKN100
     FM261800 20011G19KT P6SM VCSH BKN100
     FM270000 21006KT P6SM -SHRA OVC090
     FM270400 00000KT P6SM -SHRA OVC050=

USA.gov is the U.S. government's official web portal to all federal, state and local government web resources and services.